Friday, February 23, 2018, 7:17 AM EST
Back to Local

KRME, Griffiss Airfield

Location: Rome, NY, United States Lat: 43.233
Local Time: 7:17 AM EST (12:17 GMT) Lon: -75.4
Time Zone: US/Eastern Elev: 505 ft

Show me the last for .
Show Decoded

2018-02-23 06:53 METAR KRME 231153Z 11015G23KT 10SM OVC100 M02/M06 A3058 RMK AO2 SLP359 70014
                 T10221061 11006 21022 56018 =
2018-02-23 05:53 METAR KRME 231053Z AUTO 13008KT 10SM SCT013 BKN100 M02/M04 A3059 RMK AO2 SLP364
                 T10171039 =
2018-02-23 05:26 METAR KRME 231026Z AUTO 11007KT 10SM FEW011 M02/M03 A3060 RMK AO2 T10171033 =
2018-02-23 04:53 METAR KRME 230953Z AUTO 13010KT 10SM OVC013 M01/M03 A3061 RMK AO2 SLP371
                 T10111028 =
2018-02-23 03:53 METAR KRME 230853Z AUTO 10006KT 10SM OVC012 M01/M03 A3063 RMK AO2 SLP378
                 T10111028 56015 =
2018-02-23 02:53 METAR KRME 230753Z AUTO 12006KT 10SM OVC014 M01/M02 A3065 RMK AO2 SLP383
                 T10061022 =
2018-02-23 01:53 METAR KRME 230653Z AUTO 09006KT 10SM OVC010 M01/M02 A3066 RMK AO2 SLP387
                 T10061017 =
2018-02-23 01:46 METAR KRME 230646Z AUTO 09006KT 10SM OVC010 M01/M02 A3067 RMK AO2 CIG 008V012
                 T10061017 =
2018-02-23 01:35 METAR KRME 230635Z AUTO 09004KT 10SM OVC009 M01/M02 A3067 RMK AO2 CIG 008V012
                 T10061017 =
2018-02-23 00:53 METAR KRME 230553Z AUTO 11003KT 10SM OVC010 M01/M02 A3068 RMK AO2 CIG 008V012
                 SLP393 T10061017 10006 21011 55004 =
2018-02-23 00:51 METAR KRME 230551Z AUTO 10003KT 10SM OVC010 M01/M02 A3068 RMK AO2 CIG 008V012 =
2018-02-23 00:03 METAR KRME 230503Z AUTO 11003KT 10SM BKN009 OVC013 M01/M02 A3068 RMK AO2 CIG
                 008V011 T10061022 =
2018-02-22 23:53 METAR KRME 230453Z AUTO 10003KT 10SM OVC012 M01/M02 A3068 RMK AO2 SLP393
                 T10111022 400171011 =
2018-02-22 23:40 METAR KRME 230440Z AUTO 11004KT 10SM BKN012 M01/M02 A3067 RMK AO2 T10111022 =
2018-02-22 23:15 METAR KRME 230415Z AUTO 09003KT 10SM FEW007 SCT010 M01/M03 A3069 RMK AO2
                 T10111028 =
2018-02-22 22:53 METAR KRME 230353Z AUTO 12004KT 9SM OVC008 M01/M02 A3069 RMK AO2 CIG 003V011
                 SLP397 T10061022 =
2018-02-22 22:34 METAR KRME 230334Z AUTO 15006KT 6SM BR OVC006 M01/M01 A3069 RMK AO2 CIG 003V010
                 T10061006 =
2018-02-22 22:21 METAR KRME 230321Z AUTO 16005KT 7SM BKN004 OVC010 00/M01 A3069 RMK AO2 CIG
                 004V007 T00001006 =
2018-02-22 21:53 METAR KRME 230253Z AUTO 15004KT 6SM BR OVC007 00/00 A3068 RMK AO2 CIG 004V010
                 SLP394 T00000000 50007 =
2018-02-22 20:53 METAR KRME 230153Z 00000KT 8SM OVC006 00/00 A3068 RMK AO2 SLP395 T00000000 =
2018-02-22 20:32 METAR KRME 230132Z 00000KT 8SM BKN006 BKN021 M01/M01 A3067 RMK AO2 T10061006 =
2018-02-22 20:13 METAR KRME 230113Z 11003KT 8SM SCT007 M01/M01 A3066 RMK AO2 T10061011 =
2018-02-22 19:53 METAR KRME 230053Z 00000KT 10SM OVC007 01/00 A3067 RMK AO2 SLP392 T00060000 =
2018-02-22 18:53 METAR KRME 222353Z 13003KT 10SM BKN009 OVC016 01/00 A3066 RMK AO2 CIG 008V013
                 SLP387 60010 T00060000 10011 20000 53002 =
2018-02-22 18:10 METAR KRME 222310Z 00000KT 10SM BKN006 OVC010 01/01 A3066 RMK AO2 CIG 005V009
                 T00110006 =
2018-02-22 17:53 METAR KRME 222253Z 00000KT 10SM FEW005 OVC010 01/01 A3065 RMK AO2 SLP383
                 T00110006 =
2018-02-22 17:26 METAR KRME 222226Z 14003KT 10SM SCT005 OVC010 01/01 A3064 RMK AO2 CIG 009V013
                 T00110006 =
2018-02-22 17:16 METAR KRME 222216Z 00000KT 10SM BKN005 OVC014 01/01 A3064 RMK AO2 T00110006 =
2018-02-22 16:53 METAR KRME 222153Z 14003KT 10SM SCT005 OVC015 01/01 A3064 RMK AO2 SLP381
                 T00110006 =
2018-02-22 16:28 METAR KRME 222128Z 15004KT 10SM BKN004 OVC010 01/01 A3065 RMK AO2 CIG 003V007
                 T00110006 =
2018-02-22 16:20 METAR KRME 222120Z 15005KT 10SM BKN006 OVC010 01/01 A3065 RMK AO2 CIG 003V010
                 T00110006 =
2018-02-22 15:53 METAR KRME 222053Z 00000KT 10SM OVC011 01/01 A3065 RMK AO2 SNE01 SLP385 P0000
                 60010 T00110006 58002 =
2018-02-22 15:19 METAR KRME 222019Z 00000KT 9SM SCT005 OVC012 01/01 A3067 RMK AO2 SNE01 P0000
                 T00060006 =
2018-02-22 14:53 METAR KRME 221953Z 32004KT 3SM -SN BR BKN004 OVC016 01/00 A3068 RMK AO2 SLP392
                 P0003 T00060000 =
2018-02-22 14:45 METAR KRME 221945Z 00000KT 1 1/2SM -SN BR SCT002 OVC016 01/01 A3067 RMK AO2
                 P0003 T00060006 =
2018-02-22 14:33 METAR KRME 221933Z 16003KT 1SM -SN BR VV015 00/00 A3066 RMK AO2 P0003 T00000000
                 RVRNO =
2018-02-22 13:53 METAR KRME 221853Z 00000KT 1/2SM SN FG VV010 00/00 A3066 RMK AO2 SLP387 P0007
                 T00000000 RVRNO =
2018-02-22 13:00 METAR KRME 221800Z 00000KT 1/2SM SN FG OVC010 00/00 A3066 RMK AO2 P0001
                 T00000000 RVRNO =
2018-02-22 12:53 METAR KRME 221753Z 00000KT 1 1/2SM -SN BR OVC012 01/00 A3066 RMK AO2 SLP387
                 P0004 60004 T00060000 10017 20000 56011 =
2018-02-22 11:53 METAR KRME 221653Z 10003KT 1 1/2SM -SN BR OVC011 02/M01 A3067 RMK AO2 SNB47
                 SLP389 P0000 T00171006 =
2018-02-22 11:17 METAR KRME 221617Z 00000KT 10SM BKN013 OVC021 02/M01 A3066 RMK AO2 T00171006 =
2018-02-22 11:04 METAR KRME 221604Z 00000KT 10SM FEW015 BKN022 OVC070 02/M01 A3067 RMK AO2
                 T00171006 =
2018-02-22 10:53 METAR KRME 221553Z 14003KT 10SM SCT024 OVC070 02/M01 A3067 RMK AO2 SLP388
                 T00171006 =
2018-02-22 09:53 METAR KRME 221453Z 00000KT 10SM OVC065 01/M01 A3069 RMK AO2 SLP397 T00111006
                 53023 =
2018-02-22 08:53 METAR KRME 221353Z 00000KT 10SM OVC080 01/M01 A3065 RMK AO2 SLP384 T00061006 =
2018-02-22 07:53 METAR KRME 221253Z 00000KT 10SM OVC090 01/M01 A3065 RMK AO2 SLP383 T00061006 =

Support USWX by starting your Amazon purchase here.